Airfield :
LOGIN :

Register | Disclaimer

   EN    FR    IT 

 










Legend :    VFR   Marginal VFR   IFR   Intensive IFR   Very Intensive IFR
Visi :
Ceiling :
>= 8 km
>= 3000ft
5 to 8 km
1000 to 3000 ft
1500m to 5 km
500 to 1000 ft
800 to 1500m
200 to 500 ft
< 800m
< 200 ft
Symbols :   Thunderstorms  Fog  Heavy snow  Heavy precipitations  Wind > 20 kt
SIGMETs :     Misc.  Thunderstorms  Icing  Turbulence  Mountain Waves  Volcanic Ashes







- Airport Elevation : 194 ft


EBCV - Chièvres

CURRENT METAR :
  • 220555Z AUTO 25007KT 9999 OVC008/// 09/09 Q1007 GRN

EXPIRED METARs :
  • 220525Z AUTO 26008KT 9999 OVC008/// 10/09 Q1007 GRN
  • 220455Z AUTO 25008KT 9999 OVC010/// 10/09 Q1007 GRN
  • 220433Z AUTO 25009KT 9000 OVC011/// 09/09 Q1007 GRN
  • 220425Z AUTO 25009KT 9999 FEW010/// OVC021/// 09/09 Q1007 WHT
  • 220355Z AUTO 25009KT 7000 OVC005/// 09/09 Q1007 YLO
  • 220325Z AUTO 25008KT 5000 DZ OVC004/// 09/09 Q1007 YLO

TAF TAF EBCV
Valid from the 21 at 19:00 until the 22 at 07:00 UTC


211541Z 2119/2207 17012KT 6000 -RA BKN010 OVC015
TEMPO 2116/2120 4000 RADZ BKN005 OVC008
PROB30
TEMPO 2116/2120 2000 RASN BKN002 OVC005
BECMG 2202/2205 260121KT 6000 BKN010 BKN020 BY EBWM
No reported NOTAMs for that airfield.



MET'MAP, your aeronautical weather chart ! - Copyright ORBIFLY December 2007 - Disclaimer

ORBIFLY MET'MAP TEAM :

Programming & Development : Alexandra Zaïnal
Concept & Development : Baudouin d'Aumeries
Co-Development & Prog : Marc-Olivier Méhu
Technical & hardware support : Manuel Goepfert

Contact : metmap@orbifly.com




SOURCES & CREDITS :

   NOAA